Time;durP1;ratioP1;P1;durP2;ratioP2;P2;SDS_P1;SDS_P2;PMS_P1;PMS_P2;Temp;Humidity;BMP_temperature;BMP_pressure;BME280_temperature;BME280_humidity;BME280_pressure;Samples;Min_cycle;Max_cycle;Signal;HPM_P1;HPM_P2
2024/04/23 00:02:47;;;;;;;5.87;5.30;;;6.90;74.90;;;;;;10990082;26;20242;-60
2024/04/23 00:07:52;;;;;;;8.57;6.33;;;6.90;75.00;;;;;;10991600;26;20250;-59
2024/04/23 00:13:01;;;;;;;8.10;5.83;;;6.80;74.80;;;;;;10990693;26;20246;-57
2024/04/23 00:18:06;;;;;;;6.67;5.93;;;6.80;74.80;;;;;;10993114;26;20243;-59
2024/04/23 00:23:12;;;;;;;9.53;6.70;;;6.80;75.50;;;;;;10994030;26;20736;-60
2024/04/23 00:28:20;;;;;;;9.07;6.23;;;6.80;75.20;;;;;;10992721;26;20237;-60
2024/04/23 00:33:25;;;;;;;10.33;6.93;;;6.80;75.00;;;;;;10989645;26;21019;-58
2024/04/23 00:38:31;;;;;;;8.97;6.90;;;6.80;75.00;;;;;;10990293;26;20915;-60
2024/04/23 00:43:39;;;;;;;9.53;7.93;;;6.80;74.90;;;;;;10992558;26;20311;-58
2024/04/23 00:48:45;;;;;;;8.00;6.87;;;6.80;75.00;;;;;;10990499;26;20246;-57
2024/04/23 00:53:50;;;;;;;9.07;6.93;;;6.80;74.70;;;;;;10992854;26;20230;-56
2024/04/23 00:59:00;;;;;;;8.83;7.47;;;6.80;74.90;;;;;;10986608;26;20257;-60
2024/04/23 01:04:06;;;;;;;8.07;7.17;;;6.80;75.20;;;;;;10932709;26;20238;-60
2024/04/23 01:09:12;;;;;;;9.47;7.33;;;6.80;75.20;;;;;;10988019;26;20833;-60
2024/04/23 01:14:20;;;;;;;8.00;6.80;;;6.80;74.70;;;;;;10991553;26;20326;-60
2024/04/23 01:19:31;;;;;;;7.83;7.03;;;6.80;74.90;;;;;;10986765;26;20953;-58
2024/04/23 01:24:43;;;;;;;8.53;7.27;;;6.80;75.20;;;;;;10992793;26;20241;-59
2024/04/23 01:29:51;;;;;;;7.87;7.07;;;6.80;75.00;;;;;;10991693;26;20249;-59
2024/04/23 01:34:57;;;;;;;8.33;7.20;;;6.70;74.90;;;;;;10994248;26;20299;-60
2024/04/23 01:40:04;;;;;;;7.50;6.73;;;6.70;74.80;;;;;;11004088;26;20252;-57
2024/04/23 01:45:15;;;;;;;8.43;7.30;;;6.70;74.90;;;;;;11000901;26;20241;-59
2024/04/23 01:50:21;;;;;;;9.93;6.80;;;6.60;75.00;;;;;;11000583;26;20245;-59
2024/04/23 01:55:27;;;;;;;9.07;7.30;;;6.50;75.20;;;;;;11002873;26;20246;-59
2024/04/23 02:00:39;;;;;;;9.63;7.53;;;6.50;75.50;;;;;;11004264;26;20590;-58
2024/04/23 02:05:46;;;;;;;8.23;7.43;;;6.40;75.60;;;;;;11002948;26;20250;-59
2024/04/23 02:10:52;;;;;;;9.70;7.40;;;6.40;75.50;;;;;;11002870;26;20344;-57
2024/04/23 02:16:00;;;;;;;9.17;7.73;;;6.40;75.30;;;;;;11002773;26;20245;-60
2024/04/23 02:21:06;;;;;;;8.90;7.13;;;6.30;75.10;;;;;;11124520;26;21005;-60
2024/04/23 02:26:12;;;;;;;7.77;6.97;;;6.30;75.30;;;;;;11115363;26;21361;-58
2024/04/23 02:31:20;;;;;;;8.83;7.33;;;6.20;75.30;;;;;;11116133;26;20764;-60
2024/04/23 02:36:25;;;;;;;8.43;7.57;;;6.20;75.40;;;;;;11130239;26;20352;-58
2024/04/23 02:41:36;;;;;;;8.10;7.20;;;6.20;75.30;;;;;;11120830;26;20434;-60
2024/04/23 02:46:44;;;;;;;8.53;7.70;;;6.10;75.10;;;;;;11121873;26;20431;-59
2024/04/23 02:51:50;;;;;;;8.53;7.67;;;6.10;75.20;;;;;;11110027;26;20304;-58
2024/04/23 02:56:55;;;;;;;9.47;7.63;;;6.10;75.40;;;;;;11118152;26;20359;-58
2024/04/23 03:02:09;;;;;;;8.63;7.83;;;6.00;75.20;;;;;;11121036;26;20846;-58
2024/04/23 03:07:15;;;;;;;9.27;7.70;;;6.00;75.30;;;;;;11100242;26;20317;-57
2024/04/23 03:12:20;;;;;;;9.10;7.77;;;6.00;75.30;;;;;;11116473;26;20653;-57
2024/04/23 03:17:28;;;;;;;11.00;7.87;;;6.00;75.40;;;;;;11111758;26;20331;-59
2024/04/23 03:22:34;;;;;;;8.53;7.63;;;5.90;75.20;;;;;;11116693;26;20252;-59
2024/04/23 03:27:39;;;;;;;8.10;7.30;;;5.90;75.30;;;;;;11117802;26;20674;-59
2024/04/23 03:32:47;;;;;;;7.90;7.10;;;5.80;75.90;;;;;;11117752;26;20234;-58
2024/04/23 03:37:52;;;;;;;8.57;7.70;;;5.80;75.20;;;;;;11112006;26;20825;-59
2024/04/23 03:42:58;;;;;;;8.83;7.93;;;5.80;75.30;;;;;;11125757;26;20306;-57
2024/04/23 03:48:06;;;;;;;8.77;7.50;;;5.80;75.30;;;;;;11119852;26;20276;-57
2024/04/23 03:53:11;;;;;;;9.03;8.03;;;5.80;75.30;;;;;;11121461;26;20276;-57
2024/04/23 03:58:17;;;;;;;8.93;8.03;;;5.70;75.10;;;;;;11111792;26;20293;-57
2024/04/23 04:08:49;;;;;;;8.50;7.63;;;5.60;75.00;;;;;;11125493;26;20359;-58
2024/04/23 04:13:57;;;;;;;10.30;8.53;;;5.60;75.20;;;;;;11124307;26;20294;-58
2024/04/23 04:19:06;;;;;;;8.73;7.83;;;5.50;75.10;;;;;;11132211;26;20291;-58
2024/04/23 04:24:11;;;;;;;10.33;8.33;;;5.50;75.30;;;;;;11116500;26;20860;-58
2024/04/23 04:29:17;;;;;;;9.40;8.30;;;5.40;75.30;;;;;;11129255;26;20851;-58
2024/04/23 04:34:25;;;;;;;8.47;7.57;;;5.40;75.30;;;;;;11122839;26;20272;-60
2024/04/23 04:39:30;;;;;;;8.50;7.70;;;5.40;75.30;;;;;;11102469;26;20246;-63
2024/04/23 04:44:35;;;;;;;8.87;7.93;;;5.40;75.20;;;;;;11116299;26;21064;-64
2024/04/23 04:49:43;;;;;;;8.77;7.53;;;5.40;75.10;;;;;;11099536;26;20286;-64
2024/04/23 04:54:49;;;;;;;10.67;8.00;;;5.40;75.00;;;;;;11121631;26;20338;-63
2024/04/23 04:59:54;;;;;;;9.37;8.37;;;5.40;75.20;;;;;;11112910;26;20288;-65
2024/04/23 05:05:02;;;;;;;11.77;9.57;;;5.40;75.90;;;;;;11107726;26;20337;-63
2024/04/23 05:10:08;;;;;;;14.23;12.50;;;5.40;75.20;;;;;;11113717;26;20293;-64
2024/04/23 05:15:14;;;;;;;21.43;14.53;;;5.40;75.70;;;;;;11107079;26;20265;-69
2024/04/23 05:20:22;;;;;;;14.00;11.37;;;5.40;75.70;;;;;;11107177;26;20280;-63
2024/04/23 05:25:28;;;;;;;15.00;10.83;;;5.50;76.00;;;;;;11098547;26;20366;-62
2024/04/23 05:35:57;;;;;;;13.17;10.80;;;5.60;75.90;;;;;;11108898;26;20330;-63
2024/04/23 05:41:03;;;;;;;12.20;9.97;;;5.70;76.00;;;;;;11115760;26;20439;-62
2024/04/23 05:46:08;;;;;;;13.03;10.00;;;5.70;76.10;;;;;;11109054;26;20272;-64
2024/04/23 05:51:51;;;;;;;11.50;10.23;;;5.80;76.10;;;;;;11117963;26;20613;-64
2024/04/23 05:56:59;;;;;;;14.87;10.03;;;5.90;76.00;;;;;;11117169;26;20347;-63
2024/04/23 06:02:04;;;;;;;14.77;9.50;;;6.00;76.00;;;;;;11112956;26;20848;-64
2024/04/23 06:07:10;;;;;;;11.73;10.50;;;6.10;76.10;;;;;;11116469;26;20287;-65
2024/04/23 06:12:18;;;;;;;11.77;10.27;;;6.20;76.10;;;;;;11107453;26;20743;-63
2024/04/23 06:17:24;;;;;;;12.03;10.03;;;6.30;75.90;;;;;;11106500;26;20351;-64
2024/04/23 06:22:48;;;;;;;11.67;10.17;;;6.40;75.80;;;;;;11118800;21;22115;-68
2024/04/23 06:27:56;;;;;;;12.77;10.40;;;6.60;75.90;;;;;;11058406;26;20259;-68
2024/04/23 06:33:02;;;;;;;11.57;10.37;;;6.70;76.00;;;;;;11059365;26;21053;-67
2024/04/23 06:38:07;;;;;;;11.07;9.50;;;6.80;76.10;;;;;;11090338;26;20308;-67
2024/04/23 06:43:15;;;;;;;11.70;10.17;;;6.90;76.00;;;;;;11086511;26;20306;-67
2024/04/23 06:48:21;;;;;;;12.60;10.20;;;7.00;75.90;;;;;;11082976;26;20341;-67
2024/04/23 06:53:27;;;;;;;10.77;9.60;;;7.10;76.00;;;;;;11091829;26;20302;-67
2024/04/23 06:58:35;;;;;;;11.17;9.83;;;7.20;76.00;;;;;;11083584;26;20336;-66
2024/04/23 07:03:42;;;;;;;9.03;8.03;;;7.30;76.00;;;;;;11084466;26;20302;-67
2024/04/23 07:08:47;;;;;;;9.63;8.63;;;7.40;75.60;;;;;;11085085;26;20246;-67
2024/04/23 07:13:55;;;;;;;11.13;8.43;;;7.50;75.60;;;;;;11091189;26;20455;-66
2024/04/23 07:19:01;;;;;;;10.83;9.10;;;7.50;75.70;;;;;;11079360;26;20334;-66
2024/04/23 07:24:07;;;;;;;8.17;7.37;;;7.60;75.60;;;;;;11092702;26;20306;-69
2024/04/23 07:29:15;;;;;;;7.83;7.07;;;7.70;74.90;;;;;;11098495;26;20274;-66
2024/04/23 07:34:20;;;;;;;9.20;7.40;;;7.80;74.70;;;;;;11095567;26;20336;-68
2024/04/23 07:39:28;;;;;;;7.70;7.00;;;7.90;74.40;;;;;;11083904;26;20326;-68
2024/04/23 07:44:36;;;;;;;8.20;6.70;;;8.10;74.60;;;;;;11081786;26;20286;-68
2024/04/23 07:49:42;;;;;;;6.63;5.97;;;8.20;74.30;;;;;;11082191;26;20337;-68
2024/04/23 07:54:50;;;;;;;8.00;6.30;;;8.30;74.10;;;;;;11091804;26;20300;-68
2024/04/23 07:59:58;;;;;;;8.67;5.80;;;8.40;73.70;;;;;;11082954;26;20769;-68
2024/04/23 08:05:03;;;;;;;6.77;5.17;;;8.50;73.60;;;;;;11104088;26;20337;-68
2024/04/23 08:10:10;;;;;;;5.53;4.77;;;8.50;73.10;;;;;;11091385;26;20263;-67
2024/04/23 08:15:18;;;;;;;4.73;4.27;;;8.70;73.00;;;;;;11089352;26;20353;-66
2024/04/23 08:20:24;;;;;;;5.13;3.90;;;8.70;72.10;;;;;;11086579;26;20271;-68
2024/04/23 08:25:29;;;;;;;4.40;3.87;;;8.80;71.30;;;;;;11103246;26;20277;-67
2024/04/23 08:30:37;;;;;;;5.37;3.00;;;8.80;71.30;;;;;;11120891;26;21105;-68
2024/04/23 08:35:45;;;;;;;3.43;2.93;;;8.90;70.90;;;;;;11099556;26;20278;-68
2024/04/23 08:40:50;;;;;;;2.90;2.57;;;9.00;71.50;;;;;;11117295;26;20274;-68
2024/04/23 08:46:00;;;;;;;4.60;3.20;;;9.00;72.40;;;;;;11096546;26;20641;-67
2024/04/23 08:51:08;;;;;;;5.27;3.40;;;9.10;75.30;;;;;;11037825;26;20758;-68
2024/04/23 08:56:22;;;;;;;3.87;3.00;;;9.10;72.30;;;;;;11094667;26;20364;-68
2024/04/23 09:01:31;;;;;;;3.50;2.97;;;9.10;71.80;;;;;;11098480;26;20263;-67
2024/04/23 09:06:38;;;;;;;5.67;3.83;;;9.20;69.80;;;;;;11101335;26;20343;-68
2024/04/23 09:11:44;;;;;;;4.15;2.92;;;9.30;72.30;;;;;;11101300;26;20328;-67
2024/04/23 09:16:54;;;;;;;3.78;3.10;;;9.30;69.10;;;;;;11115305;26;20275;-69
2024/04/23 09:22:04;;;;;;;3.28;2.97;;;9.40;67.90;;;;;;11098474;26;20266;-67
2024/04/23 09:27:14;;;;;;;3.93;2.90;;;9.50;67.80;;;;;;11099026;26;20354;-68
2024/04/23 09:32:22;;;;;;;2.83;2.58;;;9.60;71.60;;;;;;11095760;26;20281;-70
2024/04/23 09:37:28;;;;;;;3.17;2.70;;;9.80;70.90;;;;;;11113687;26;20345;-68
2024/04/23 09:42:34;;;;;;;2.70;2.47;;;10.00;67.90;;;;;;11106604;26;20261;-69
2024/04/23 09:47:45;;;;;;;5.55;3.08;;;10.30;68.50;;;;;;11099991;26;20325;-68
2024/04/23 09:52:51;;;;;;;3.17;2.88;;;10.50;68.20;;;;;;11102536;26;20364;-69
2024/04/23 09:57:56;;;;;;;3.22;2.92;;;10.80;68.50;;;;;;11104584;26;20332;-69
2024/04/23 10:03:09;;;;;;;4.18;3.20;;;11.00;68.50;;;;;;11120560;26;20383;-70
2024/04/23 10:08:27;;;;;;;4.78;3.42;;;11.20;67.90;;;;;;11112123;26;20311;-69
2024/04/23 10:13:35;;;;;;;4.13;3.47;;;11.30;67.60;;;;;;11130376;26;20348;-68
2024/04/23 10:18:50;;;;;;;4.25;3.45;;;11.40;64.50;;;;;;11122119;26;20264;-69
2024/04/23 10:23:59;;;;;;;4.22;3.15;;;11.40;63.10;;;;;;11106254;26;20290;-68
2024/04/23 10:29:05;;;;;;;4.75;3.83;;;11.20;65.00;;;;;;11101148;26;20307;-68
2024/04/23 10:34:16;;;;;;;4.00;3.25;;;11.00;63.30;;;;;;11107310;26;20294;-68
2024/04/23 10:39:24;;;;;;;5.18;3.42;;;10.90;63.60;;;;;;11114597;26;20273;-68
2024/04/23 10:44:30;;;;;;;3.22;2.92;;;10.80;63.90;;;;;;11113869;26;20277;-68
2024/04/23 10:49:40;;;;;;;3.85;3.30;;;10.80;63.10;;;;;;11111037;26;20338;-68
2024/04/23 10:54:46;;;;;;;5.35;3.15;;;10.80;62.80;;;;;;11102621;26;20278;-67
2024/04/23 10:59:55;;;;;;;4.78;3.10;;;10.80;64.10;;;;;;11104198;26;20266;-68
2024/04/23 11:05:03;;;;;;;5.75;3.42;;;10.70;62.00;;;;;;11106562;26;20394;-68
2024/04/23 11:10:09;;;;;;;4.00;3.45;;;10.70;63.00;;;;;;11094422;26;20341;-68
2024/04/23 11:15:18;;;;;;;3.65;3.00;;;10.90;61.40;;;;;;11110542;26;21464;-68
2024/04/23 11:20:27;;;;;;;4.30;3.55;;;11.30;63.10;;;;;;11111814;26;20271;-69
2024/04/23 11:25:34;;;;;;;4.05;3.50;;;11.80;62.10;;;;;;11099569;26;20346;-69
2024/04/23 11:30:40;;;;;;;4.00;3.50;;;12.10;61.70;;;;;;11119140;26;20260;-69
2024/04/23 11:35:52;;;;;;;4.25;3.45;;;12.60;62.40;;;;;;11109247;26;20294;-70
2024/04/23 11:41:14;;;;;;;4.40;3.88;;;12.90;59.40;;;;;;11109902;26;20282;-68
2024/04/23 11:46:20;;;;;;;4.38;3.45;;;13.20;61.10;;;;;;11095834;26;21053;-68
2024/04/23 11:51:28;;;;;;;4.30;3.58;;;13.40;58.60;;;;;;11117361;26;20307;-68
2024/04/23 11:56:33;;;;;;;4.22;3.58;;;13.40;59.40;;;;;;11108014;26;20353;-68
2024/04/23 12:01:39;;;;;;;4.25;3.85;;;13.30;60.70;;;;;;11102043;26;20271;-69
2024/04/23 12:06:51;;;;;;;4.53;3.70;;;13.20;60.50;;;;;;11103161;26;20286;-68
2024/04/23 12:11:57;;;;;;;4.53;3.92;;;13.40;60.00;;;;;;11085130;26;20314;-68
2024/04/23 12:17:02;;;;;;;7.63;3.90;;;13.20;58.80;;;;;;11098770;26;20392;-68
2024/04/23 12:22:18;;;;;;;5.80;5.05;;;13.00;59.60;;;;;;11110746;26;20338;-68
2024/04/23 12:27:24;;;;;;;5.03;4.00;;;12.90;58.30;;;;;;11089508;26;20257;-67
2024/04/23 12:32:30;;;;;;;4.45;4.07;;;12.80;58.80;;;;;;11081154;26;20342;-67
2024/04/23 12:37:39;;;;;;;4.80;4.35;;;12.80;58.60;;;;;;11108725;26;20270;-67
2024/04/23 12:42:45;;;;;;;5.00;4.50;;;12.70;57.60;;;;;;11099915;26;20305;-67
2024/04/23 12:47:56;;;;;;;4.90;4.50;;;12.70;60.00;;;;;;11095625;26;21521;-67
2024/04/23 12:53:04;;;;;;;5.22;4.80;;;12.80;56.60;;;;;;11097498;26;20258;-67
2024/04/23 12:58:10;;;;;;;5.13;4.10;;;12.60;55.60;;;;;;11098371;26;20242;-67
2024/04/23 13:03:16;;;;;;;4.40;4.05;;;12.40;58.10;;;;;;11090264;26;20926;-66
2024/04/23 13:08:25;;;;;;;4.80;4.40;;;12.30;57.80;;;;;;11103281;26;20282;-66
2024/04/23 13:13:30;;;;;;;4.43;4.00;;;12.30;58.00;;;;;;11110567;26;20298;-67
2024/04/23 13:18:37;;;;;;;4.68;3.70;;;12.30;58.20;;;;;;11099647;26;20337;-67
2024/04/23 13:23:45;;;;;;;4.07;3.55;;;12.40;58.60;;;;;;11115800;26;20281;-69
2024/04/23 13:28:50;;;;;;;3.83;3.30;;;12.80;58.90;;;;;;11128153;26;20353;-68
2024/04/23 13:33:56;;;;;;;3.90;3.53;;;12.90;58.30;;;;;;11137717;26;20282;-66
2024/04/23 13:39:04;;;;;;;3.80;3.40;;;12.90;58.20;;;;;;11110451;26;20317;-68
2024/04/23 13:44:09;;;;;;;3.83;3.53;;;13.10;58.10;;;;;;11110741;26;20364;-69
2024/04/23 13:49:15;;;;;;;4.18;3.80;;;12.90;56.60;;;;;;11080264;26;20262;-72
2024/04/23 13:54:23;;;;;;;3.90;3.60;;;12.80;57.20;;;;;;11136608;26;20292;-68
2024/04/23 13:59:29;;;;;;;5.35;3.75;;;12.90;57.40;;;;;;11119925;26;20324;-65
2024/04/23 14:04:35;;;;;;;3.90;3.60;;;12.80;54.40;;;;;;11114486;26;20283;-68
2024/04/23 14:09:43;;;;;;;4.10;3.78;;;12.60;56.30;;;;;;11105446;26;20258;-67
2024/04/23 14:14:49;;;;;;;3.85;3.42;;;13.00;55.70;;;;;;11104752;26;20793;-67
2024/04/23 14:19:54;;;;;;;4.20;3.80;;;13.10;56.00;;;;;;11102836;26;20262;-67
2024/04/23 14:25:04;;;;;;;3.92;3.63;;;13.00;55.60;;;;;;11108376;26;20866;-67
2024/04/23 14:30:10;;;;;;;4.25;3.63;;;12.90;55.20;;;;;;11108094;26;20321;-66
2024/04/23 14:35:18;;;;;;;4.55;4.15;;;12.70;53.60;;;;;;11099382;26;20372;-66
2024/04/23 14:40:27;;;;;;;4.07;3.78;;;12.70;54.90;;;;;;11102229;26;20314;-67
2024/04/23 14:45:34;;;;;;;6.50;4.15;;;12.70;54.70;;;;;;11109062;26;20285;-65
2024/04/23 14:50:39;;;;;;;3.97;3.67;;;12.70;55.00;;;;;;11050420;26;20335;-70
2024/04/23 14:55:47;;;;;;;5.75;4.55;;;12.80;55.90;;;;;;11108069;26;20285;-70
2024/04/23 15:00:52;;;;;;;5.05;4.55;;;12.80;54.80;;;;;;11120398;26;20358;-71
2024/04/23 15:05:58;;;;;;;4.72;4.32;;;13.30;54.60;;;;;;11109428;26;20358;-69
2024/04/23 15:11:07;;;;;;;4.90;4.32;;;13.30;53.20;;;;;;11098759;26;20259;-69
2024/04/23 15:16:12;;;;;;;4.55;4.15;;;13.60;53.50;;;;;;11113250;26;20287;-69
2024/04/23 15:21:18;;;;;;;4.95;4.22;;;13.70;53.60;;;;;;11132759;26;20330;-67
2024/04/23 15:26:26;;;;;;;5.10;4.60;;;13.60;54.10;;;;;;11118583;26;20361;-70
2024/04/23 15:31:31;;;;;;;5.28;4.78;;;13.50;54.70;;;;;;11113472;26;20262;-69
2024/04/23 15:36:37;;;;;;;6.88;4.88;;;13.60;54.40;;;;;;11115826;26;20348;-69
2024/04/23 15:41:45;;;;;;;5.60;5.05;;;13.60;53.30;;;;;;11131035;26;20706;-65
2024/04/23 15:46:51;;;;;;;6.07;4.75;;;13.40;53.30;;;;;;11099651;26;20293;-65
2024/04/23 15:51:56;;;;;;;6.20;5.15;;;13.20;53.60;;;;;;11098503;26;20310;-66
2024/04/23 15:57:04;;;;;;;5.70;5.18;;;12.90;53.50;;;;;;11108476;26;20284;-64
2024/04/23 16:02:10;;;;;;;5.72;4.70;;;12.80;53.40;;;;;;11115564;26;20693;-64
2024/04/23 16:07:15;;;;;;;5.40;4.63;;;12.80;54.30;;;;;;11112054;26;20286;-63
2024/04/23 16:12:23;;;;;;;5.10;4.18;;;13.00;55.20;;;;;;11109496;26;20258;-64
2024/04/23 16:17:29;;;;;;;5.78;4.85;;;13.20;53.20;;;;;;11115499;26;20234;-64
2024/04/23 16:22:34;;;;;;;5.93;5.32;;;13.10;53.20;;;;;;11103980;26;20403;-65
2024/04/23 16:27:42;;;;;;;5.55;5.05;;;12.80;52.70;;;;;;11101242;26;20278;-63
2024/04/23 16:32:48;;;;;;;5.20;4.70;;;13.20;53.90;;;;;;11104997;26;20356;-64
2024/04/23 16:37:54;;;;;;;6.75;5.13;;;13.70;52.70;;;;;;11103923;26;20855;-65
2024/04/23 16:43:02;;;;;;;6.10;5.50;;;13.60;52.70;;;;;;11093928;26;20301;-64
2024/04/23 16:48:08;;;;;;;6.78;4.75;;;13.40;50.70;;;;;;11111278;26;20262;-63
2024/04/23 16:53:14;;;;;;;6.00;5.40;;;13.60;52.00;;;;;;11108530;26;20230;-65
2024/04/23 16:58:22;;;;;;;6.28;5.53;;;14.10;52.40;;;;;;11120002;26;20258;-65
2024/04/23 17:03:27;;;;;;;6.00;5.47;;;14.20;50.80;;;;;;11107979;26;20337;-65
2024/04/23 17:08:33;;;;;;;6.28;5.55;;;14.00;52.60;;;;;;11094555;26;20602;-65
2024/04/23 17:13:40;;;;;;;6.85;5.75;;;13.80;52.40;;;;;;11099498;26;20366;-65
2024/04/23 17:18:46;;;;;;;7.55;6.15;;;13.50;50.80;;;;;;11096584;26;20305;-63
2024/04/23 17:23:56;;;;;;;5.75;5.18;;;13.30;50.60;;;;;;11107519;26;20286;-66
2024/04/23 17:29:04;;;;;;;5.78;5.28;;;13.00;51.20;;;;;;11110693;26;20674;-65
2024/04/23 17:34:09;;;;;;;8.55;6.50;;;12.80;51.60;;;;;;11099729;26;20337;-66
2024/04/23 17:39:14;;;;;;;8.90;8.20;;;12.60;50.70;;;;;;11101245;26;20628;-64
2024/04/23 17:44:22;;;;;;;8.38;7.53;;;12.40;49.80;;;;;;11108683;26;20820;-68
2024/04/23 17:49:28;;;;;;;9.32;7.10;;;12.20;50.40;;;;;;11103358;26;20808;-66
2024/04/23 17:54:33;;;;;;;8.20;6.63;;;12.00;51.10;;;;;;11109746;26;20769;-65
2024/04/23 17:59:41;;;;;;;6.38;5.78;;;11.80;50.90;;;;;;11105871;26;20341;-65
2024/04/23 18:04:46;;;;;;;8.00;6.90;;;11.60;50.50;;;;;;11107270;26;20278;-66
2024/04/23 18:09:53;;;;;;;8.32;6.18;;;11.40;51.30;;;;;;11093008;26;20353;-66
2024/04/23 18:15:01;;;;;;;7.53;6.72;;;11.30;51.20;;;;;;11089602;26;20294;-65
2024/04/23 18:20:07;;;;;;;6.70;6.03;;;11.20;51.90;;;;;;11094520;26;20354;-66
2024/04/23 18:25:13;;;;;;;6.95;6.25;;;11.10;51.20;;;;;;11101296;26;20788;-66
2024/04/23 18:30:21;;;;;;;7.43;6.20;;;11.10;51.50;;;;;;11123490;26;20278;-66
2024/04/23 18:35:27;;;;;;;8.60;5.97;;;11.00;52.30;;;;;;11111897;26;20801;-66
2024/04/23 18:40:33;;;;;;;7.20;5.93;;;10.90;51.00;;;;;;11109336;26;20283;-67
2024/04/23 18:45:41;;;;;;;7.40;6.22;;;10.80;52.00;;;;;;11124676;26;20362;-66
2024/04/23 18:50:46;;;;;;;6.57;5.40;;;10.80;51.70;;;;;;11120503;26;20262;-65
2024/04/23 18:55:52;;;;;;;7.72;5.47;;;10.70;51.70;;;;;;11109920;26;20352;-66
2024/04/23 19:01:07;;;;;;;6.68;5.45;;;10.70;51.90;;;;;;11106927;26;20849;-65
2024/04/23 19:06:14;;;;;;;6.32;5.07;;;10.70;52.10;;;;;;11111536;26;20337;-66
2024/04/23 19:11:25;;;;;;;5.18;4.57;;;10.60;51.20;;;;;;11117456;26;20678;-65
2024/04/23 19:16:34;;;;;;;6.25;4.78;;;10.50;51.50;;;;;;11116190;26;20250;-66
2024/04/23 19:21:39;;;;;;;5.93;4.32;;;10.50;51.60;;;;;;11109247;26;20242;-66
2024/04/23 19:26:47;;;;;;;5.30;4.43;;;10.50;51.60;;;;;;11111362;26;20322;-66
2024/04/23 19:31:55;;;;;;;5.72;4.60;;;10.40;51.60;;;;;;11126495;26;20832;-66
2024/04/23 19:37:02;;;;;;;7.32;4.50;;;10.40;51.30;;;;;;11120246;26;20281;-65
2024/04/23 19:42:07;;;;;;;5.72;4.57;;;10.40;51.50;;;;;;11125272;26;20279;-65
2024/04/23 19:47:15;;;;;;;5.70;4.68;;;10.30;51.70;;;;;;11124453;26;20435;-63
2024/04/23 19:52:21;;;;;;;5.70;4.70;;;10.30;52.20;;;;;;11118079;26;20614;-66
2024/04/23 20:02:52;;;;;;;6.07;5.47;;;10.20;51.80;;;;;;11129336;26;20776;-61
2024/04/23 20:07:57;;;;;;;5.53;4.93;;;10.20;51.90;;;;;;11111373;26;20842;-62
2024/04/23 20:13:03;;;;;;;5.28;4.63;;;10.20;52.10;;;;;;11125795;26;20360;-62
2024/04/23 20:18:11;;;;;;;7.93;4.60;;;10.20;52.60;;;;;;11125705;26;20848;-61
2024/04/23 20:23:17;;;;;;;5.75;4.20;;;10.10;52.00;;;;;;11120936;26;20291;-62
2024/04/23 20:28:23;;;;;;;6.10;4.00;;;10.10;52.00;;;;;;11124865;26;20334;-63
2024/04/23 20:33:31;;;;;;;5.07;3.83;;;10.10;51.80;;;;;;11132472;26;20294;-64
2024/04/23 20:38:36;;;;;;;5.90;3.97;;;10.10;52.40;;;;;;11125163;26;20287;-61
2024/04/23 20:43:42;;;;;;;4.97;3.88;;;10.00;52.60;;;;;;11112938;26;20287;-63
2024/04/23 20:48:50;;;;;;;6.17;4.27;;;10.00;52.90;;;;;;11121487;26;20259;-60
2024/04/23 20:53:55;;;;;;;8.05;5.63;;;10.00;54.40;;;;;;11113695;26;20290;-62
2024/04/23 20:59:01;;;;;;;7.07;5.72;;;9.80;58.30;;;;;;11115933;26;20766;-63
2024/04/23 21:04:09;;;;;;;6.88;6.25;;;9.70;58.30;;;;;;11138713;26;20353;-62
2024/04/23 21:09:14;;;;;;;7.50;6.72;;;9.60;60.30;;;;;;11118102;26;20772;-62
2024/04/23 21:14:20;;;;;;;8.77;7.13;;;9.50;61.50;;;;;;11124293;26;20278;-62
2024/04/23 21:19:28;;;;;;;8.63;7.72;;;9.30;62.80;;;;;;11127910;26;20615;-63
2024/04/23 21:24:33;;;;;;;11.27;8.77;;;9.20;63.10;;;;;;11118028;26;20708;-62
2024/04/23 21:29:40;;;;;;;12.17;10.87;;;9.10;63.00;;;;;;11126063;26;20601;-63
2024/04/23 21:34:48;;;;;;;10.97;9.70;;;8.90;65.70;;;;;;11130697;26;20352;-63
2024/04/23 21:39:53;;;;;;;13.00;11.50;;;8.70;65.40;;;;;;11129135;26;20848;-64
2024/04/23 21:44:58;;;;;;;13.43;12.13;;;8.60;66.90;;;;;;11120825;26;20308;-63
2024/04/23 21:50:07;;;;;;;13.80;12.37;;;8.60;67.10;;;;;;11124514;26;20262;-63
2024/04/23 21:55:12;;;;;;;14.80;13.30;;;8.60;68.20;;;;;;11123259;26;20707;-63
2024/04/23 22:00:18;;;;;;;14.50;12.80;;;8.60;68.20;;;;;;11132985;26;20258;-63
2024/04/23 22:05:26;;;;;;;14.20;12.63;;;8.60;68.50;;;;;;11127592;26;21243;-62
2024/04/23 22:10:31;;;;;;;13.83;11.53;;;8.60;68.30;;;;;;11122040;26;20325;-62
2024/04/23 22:15:36;;;;;;;14.43;12.93;;;8.50;70.00;;;;;;11138761;26;20289;-62
2024/04/23 22:20:51;;;;;;;14.83;12.20;;;8.40;71.20;;;;;;11136056;26;20262;-63
2024/04/23 22:25:57;;;;;;;13.80;12.33;;;8.40;69.40;;;;;;11118145;26;20278;-63
2024/04/23 22:31:03;;;;;;;14.70;13.03;;;8.40;71.50;;;;;;11130166;26;20258;-63
2024/04/23 22:36:11;;;;;;;14.37;12.30;;;8.30;73.30;;;;;;11120465;26;20283;-62
2024/04/23 22:41:17;;;;;;;15.07;12.67;;;8.20;71.50;;;;;;11109426;26;20625;-61
2024/04/23 22:46:22;;;;;;;15.43;13.73;;;8.20;74.00;;;;;;11129904;26;20309;-61
2024/04/23 22:51:30;;;;;;;18.23;13.93;;;8.20;73.70;;;;;;11123420;26;20714;-60
2024/04/23 22:56:35;;;;;;;16.53;14.10;;;8.10;72.80;;;;;;11131722;26;20674;-60
2024/04/23 23:01:42;;;;;;;16.30;14.70;;;8.10;73.10;;;;;;11125710;26;20267;-61
2024/04/23 23:06:50;;;;;;;19.10;14.80;;;8.10;74.00;;;;;;11129015;26;20278;-62
2024/04/23 23:11:56;;;;;;;16.63;14.83;;;8.20;73.40;;;;;;11120444;26;20332;-62
2024/04/23 23:17:01;;;;;;;17.77;14.40;;;8.30;73.60;;;;;;11120178;26;20285;-61
2024/04/23 23:22:09;;;;;;;11.70;10.50;;;8.40;73.00;;;;;;11123471;26;20347;-66
2024/04/23 23:27:15;;;;;;;13.53;10.93;;;8.40;73.90;;;;;;11119349;26;20278;-64
2024/04/23 23:32:20;;;;;;;9.70;8.70;;;8.40;74.30;;;;;;11124074;26;20247;-63
2024/04/23 23:37:28;;;;;;;11.03;9.90;;;8.40;73.00;;;;;;11110005;26;20309;-63
2024/04/23 23:42:33;;;;;;;10.07;9.07;;;8.40;74.00;;;;;;11123696;26;20340;-68
2024/04/23 23:47:39;;;;;;;8.53;7.60;;;8.40;74.00;;;;;;11122674;26;20250;-65
2024/04/23 23:52:47;;;;;;;11.77;7.90;;;8.30;74.00;;;;;;11119895;26;20281;-64
2024/04/23 23:57:53;;;;;;;9.37;6.83;;;8.30;75.00;;;;;;11111462;26;20314;-65
